createdAt,value
2019-04-10T00:01:07.746Z,14.20
2019-04-10T00:03:37.986Z,14.13
2019-04-10T00:06:04.883Z,13.93
2019-04-10T00:08:33.026Z,14.50
2019-04-10T00:11:01.154Z,14.13
2019-04-10T00:13:29.373Z,13.37
2019-04-10T00:15:57.511Z,13.67
2019-04-10T00:18:26.298Z,13.43
2019-04-10T00:20:54.643Z,13.53
2019-04-10T00:23:22.907Z,12.60
2019-04-10T00:25:52.921Z,12.90
2019-04-10T00:28:21.285Z,13.47
2019-04-10T00:30:49.434Z,13.80
2019-04-10T00:33:18.728Z,14.53
2019-04-10T00:35:47.710Z,13.30
2019-04-10T00:38:16.022Z,13.75
2019-04-10T00:40:44.129Z,13.53
2019-04-10T00:43:12.749Z,14.33
2019-04-10T00:45:41.848Z,14.20
2019-04-10T00:50:44.726Z,12.97
2019-04-10T00:53:21.288Z,13.70
2019-04-10T00:55:50.331Z,13.13
2019-04-10T00:58:18.510Z,12.60
2019-04-10T01:00:47.630Z,11.40
2019-04-10T01:03:17.647Z,14.00
2019-04-10T01:05:45.799Z,13.00
2019-04-10T01:08:13.975Z,13.60
2019-04-10T01:10:42.244Z,12.28
2019-04-10T01:13:10.462Z,13.93
2019-04-10T01:15:38.659Z,14.38
2019-04-10T01:18:06.844Z,13.23
2019-04-10T01:20:35.762Z,13.70
2019-04-10T01:23:03.947Z,14.27
2019-04-10T01:25:32.561Z,13.10
2019-04-10T01:28:00.725Z,12.83
2019-04-10T01:30:28.889Z,12.47
2019-04-10T01:32:57.013Z,12.70
2019-04-10T01:35:25.164Z,12.33
2019-04-10T01:37:59.138Z,12.58
2019-04-10T01:40:23.695Z,13.03
2019-04-10T01:43:02.471Z,12.50
2019-04-10T01:45:21.755Z,12.33
2019-04-10T01:47:49.870Z,14.17
2019-04-10T01:50:18.066Z,13.57
2019-04-10T01:52:47.144Z,12.15
2019-04-10T01:55:22.902Z,13.10
2019-04-10T01:57:46.125Z,13.30
2019-04-10T02:00:23.668Z,12.05
2019-04-10T02:02:52.531Z,12.53
2019-04-10T02:05:20.772Z,10.97
2019-04-10T02:08:01.328Z,12.40
2019-04-10T02:10:18.963Z,12.90
2019-04-10T02:12:47.281Z,12.20
2019-04-10T02:15:15.930Z,12.00
2019-04-10T02:17:44.521Z,12.68
2019-04-10T02:20:12.728Z,12.50
2019-04-10T02:22:40.868Z,11.60
2019-04-10T02:25:09.052Z,12.67
2019-04-10T02:27:38.403Z,11.73
2019-04-10T02:30:09.753Z,11.40
2019-04-10T02:32:39.215Z,13.43
2019-04-10T02:35:10.559Z,13.03
2019-04-10T02:37:37.493Z,13.10
2019-04-10T02:40:08.813Z,12.90
2019-04-10T02:42:36.510Z,12.80
2019-04-10T02:45:06.037Z,12.05
2019-04-10T02:47:34.750Z,11.93
2019-04-10T02:50:04.049Z,11.90
2019-04-10T02:52:33.658Z,12.25
2019-04-10T02:55:03.918Z,12.33
2019-04-10T02:57:34.791Z,11.90
2019-04-10T03:00:05.478Z,12.10
2019-04-10T03:02:33.730Z,11.63
2019-04-10T03:05:01.947Z,12.77
2019-04-10T03:07:31.725Z,13.23
2019-04-10T03:10:08.793Z,12.57
2019-04-10T03:12:30.151Z,12.33
2019-04-10T03:14:59.161Z,11.70
2019-04-10T03:17:28.172Z,13.17
2019-04-10T03:20:00.209Z,11.53
2019-04-10T03:22:28.998Z,12.03
2019-04-10T03:24:57.216Z,12.77
2019-04-10T03:27:26.066Z,12.95
2019-04-10T03:29:54.377Z,12.40
2019-04-10T03:32:35.397Z,12.30
2019-04-10T03:35:04.553Z,11.23
2019-04-10T03:37:32.744Z,12.20
2019-04-10T03:40:00.870Z,10.77
2019-04-10T03:42:29.212Z,11.93
2019-04-10T03:44:57.320Z,11.53
2019-04-10T03:47:25.472Z,12.13
2019-04-10T03:49:54.063Z,11.83
2019-04-10T03:52:22.284Z,12.33
2019-04-10T03:54:50.452Z,12.70
2019-04-10T03:57:18.564Z,13.30
2019-04-10T03:59:48.009Z,11.13
2019-04-10T04:02:16.100Z,12.18
2019-04-10T04:04:44.336Z,12.60
2019-04-10T04:07:13.374Z,11.57
2019-04-10T04:09:44.004Z,12.23
2019-04-10T04:12:12.572Z,12.23
2019-04-10T04:14:40.890Z,10.77
2019-04-10T04:17:09.059Z,12.00
2019-04-10T04:19:37.983Z,12.03
2019-04-10T04:22:06.351Z,11.47
2019-04-10T04:24:35.668Z,11.73
2019-04-10T04:27:04.718Z,13.03
2019-04-10T04:29:32.976Z,12.33
2019-04-10T04:32:01.243Z,12.30
2019-04-10T04:34:30.004Z,12.25
2019-04-10T04:36:58.193Z,12.60
2019-04-10T04:39:28.942Z,11.80
2019-04-10T04:41:56.932Z,11.80
2019-04-10T04:44:25.113Z,11.07
2019-04-10T04:46:55.391Z,10.87
2019-04-10T04:49:24.206Z,11.53
2019-04-10T04:51:52.707Z,12.33
2019-04-10T04:54:21.353Z,11.60
2019-04-10T04:56:50.446Z,11.55
2019-04-10T04:59:18.633Z,11.00
2019-04-10T05:01:46.914Z,10.97
2019-04-10T05:04:15.230Z,11.00
2019-04-10T05:06:43.743Z,11.47
2019-04-10T05:09:25.993Z,10.80
2019-04-10T05:11:43.464Z,10.77
2019-04-10T05:14:11.576Z,10.63
2019-04-10T05:16:39.695Z,10.60
2019-04-10T05:19:08.610Z,10.63
2019-04-10T05:21:37.276Z,11.13
2019-04-10T05:24:05.477Z,10.97
2019-04-10T05:26:34.294Z,10.97
2019-04-10T05:29:02.725Z,10.37
2019-04-10T05:31:32.166Z,10.63
2019-04-10T05:34:00.878Z,10.43
2019-04-10T05:36:29.433Z,10.82
2019-04-10T05:38:57.807Z,10.60
2019-04-10T05:41:26.772Z,10.53
2019-04-10T05:43:55.072Z,11.57
2019-04-10T05:46:23.384Z,10.63
2019-04-10T05:48:52.581Z,10.58
2019-04-10T05:51:21.339Z,10.40
2019-04-10T05:53:52.299Z,10.43
2019-04-10T05:56:20.576Z,9.93
2019-04-10T05:58:54.892Z,9.97
2019-04-10T06:01:32.322Z,10.00
2019-04-10T06:03:52.965Z,10.18
2019-04-10T06:06:22.123Z,10.03
2019-04-10T06:08:51.136Z,9.07
2019-04-10T06:11:20.441Z,8.43
2019-04-10T06:13:48.896Z,10.03
2019-04-10T06:16:17.294Z,9.75
2019-04-10T06:18:45.643Z,8.70
2019-04-10T06:21:14.776Z,9.80
2019-04-10T06:23:43.406Z,9.60
2019-04-10T06:26:12.640Z,9.40
2019-04-10T06:28:41.987Z,10.23
2019-04-10T06:31:10.415Z,9.57
2019-04-10T06:33:38.645Z,8.90
2019-04-10T06:36:07.018Z,8.98
2019-04-10T06:38:35.216Z,11.57
2019-04-10T06:41:03.536Z,10.17
2019-04-10T06:43:32.840Z,9.43
2019-04-10T06:46:01.279Z,10.53
2019-04-10T06:48:30.119Z,9.00
2019-04-10T06:50:58.391Z,9.53
2019-04-10T06:53:26.549Z,9.83
2019-04-10T06:55:54.651Z,9.78
2019-04-10T06:58:23.656Z,10.23
2019-04-10T07:00:53.831Z,9.33
2019-04-10T07:03:23.076Z,9.67
2019-04-10T07:06:04.845Z,16.10
2019-04-10T07:08:24.389Z,10.83
2019-04-10T07:11:03.350Z,9.80
2019-04-10T07:13:25.961Z,8.60
2019-04-10T07:15:57.787Z,10.40
2019-04-10T07:18:24.475Z,10.47
2019-04-10T07:20:59.280Z,10.37
2019-04-10T07:23:28.782Z,10.53
2019-04-10T07:25:55.035Z,8.77
2019-04-10T07:28:23.989Z,9.03
2019-04-10T07:30:54.483Z,9.63
2019-04-10T07:33:22.085Z,10.15
2019-04-10T07:35:50.201Z,9.40
2019-04-10T07:38:21.040Z,9.50
2019-04-10T07:40:49.076Z,10.27
2019-04-10T07:43:18.574Z,9.13
2019-04-10T07:45:47.298Z,10.00
2019-04-10T07:48:16.371Z,9.10
2019-04-10T07:50:47.121Z,8.47
2019-04-10T07:53:14.850Z,9.50
2019-04-10T07:55:55.154Z,9.25
2019-04-10T07:58:13.214Z,10.20
2019-04-10T08:00:42.891Z,13.77
2019-04-10T08:03:11.201Z,13.43
2019-04-10T08:05:39.347Z,13.63
2019-04-10T08:08:08.575Z,16.73
2019-04-10T08:10:36.954Z,11.13
2019-04-10T08:13:05.144Z,10.35
2019-04-10T08:15:33.668Z,9.17
2019-04-10T08:18:02.590Z,10.00
2019-04-10T08:20:31.029Z,10.33
2019-04-10T08:22:59.508Z,10.57
2019-04-10T08:25:29.003Z,11.50
2019-04-10T08:27:59.240Z,11.80
2019-04-10T08:30:27.946Z,11.77
2019-04-10T08:33:01.038Z,11.23
2019-04-10T08:35:26.199Z,12.25
2019-04-10T08:37:54.359Z,11.20
2019-04-10T08:40:23.225Z,12.00
2019-04-10T08:42:52.457Z,11.57
2019-04-10T08:45:22.146Z,11.03
2019-04-10T08:47:50.845Z,12.03
2019-04-10T08:50:19.745Z,11.83
2019-04-10T08:52:48.659Z,12.63
2019-04-10T08:55:17.758Z,12.30
2019-04-10T08:57:46.100Z,11.90
2019-04-10T09:00:14.603Z,10.83
2019-04-10T09:02:42.819Z,12.93
2019-04-10T09:05:11.701Z,12.60
2019-04-10T09:07:40.158Z,11.33
2019-04-10T09:10:08.659Z,12.63
2019-04-10T09:12:36.865Z,13.07
2019-04-10T09:15:06.300Z,11.38
2019-04-10T09:17:35.432Z,13.60
2019-04-10T09:20:05.207Z,12.90
2019-04-10T09:22:49.799Z,13.50
2019-04-10T09:25:03.904Z,12.88
2019-04-10T09:27:32.003Z,15.60
2019-04-10T09:30:00.448Z,14.50
2019-04-10T09:32:28.798Z,14.17
2019-04-10T09:34:58.157Z,14.60
2019-04-10T09:37:26.458Z,15.20
2019-04-10T09:39:56.150Z,16.87
2019-04-10T09:42:25.582Z,12.83
2019-04-10T09:44:54.834Z,15.07
2019-04-10T09:47:23.135Z,15.80
2019-04-10T09:49:51.456Z,14.93
2019-04-10T09:52:19.658Z,14.23
2019-04-10T09:54:48.846Z,15.80
2019-04-10T09:57:18.643Z,12.87
2019-04-10T09:59:47.302Z,15.00
2019-04-10T10:02:16.206Z,24.27
2019-04-10T10:04:46.770Z,14.60
2019-04-10T10:07:14.672Z,15.37
2019-04-10T10:09:43.161Z,13.50
2019-04-10T10:12:11.668Z,15.37
2019-04-10T10:14:42.254Z,15.70
2019-04-10T10:17:10.708Z,15.20
2019-04-10T10:19:39.343Z,15.67
2019-04-10T10:22:09.379Z,13.57
2019-04-10T10:24:38.488Z,14.07
2019-04-10T10:27:07.417Z,15.37
2019-04-10T10:29:35.710Z,15.37
2019-04-10T10:32:04.625Z,15.10
2019-04-10T10:34:32.888Z,14.07
2019-04-10T10:37:03.549Z,15.30
2019-04-10T10:39:31.287Z,15.10
2019-04-10T10:41:59.490Z,15.50
2019-04-10T10:44:27.640Z,13.37
2019-04-10T10:46:55.832Z,15.03
2019-04-10T10:49:24.362Z,13.20
2019-04-10T10:51:53.327Z,14.70
2019-04-10T10:54:21.564Z,14.03
2019-04-10T10:56:50.808Z,14.55
2019-04-10T10:59:19.695Z,14.57
2019-04-10T11:01:48.510Z,15.10
2019-04-10T11:04:19.094Z,14.67
2019-04-10T11:06:53.991Z,16.13
2019-04-10T11:09:18.184Z,15.03
2019-04-10T11:11:47.122Z,14.85
2019-04-10T11:14:15.468Z,14.33
2019-04-10T11:16:43.648Z,13.80
2019-04-10T11:19:12.997Z,14.60
2019-04-10T11:21:46.985Z,18.35
2019-04-10T11:24:11.276Z,17.67
2019-04-10T11:26:40.010Z,14.38
2019-04-10T11:29:11.835Z,14.10
2019-04-10T11:31:53.633Z,14.90
2019-04-10T11:34:24.305Z,14.10
2019-04-10T11:39:28.648Z,14.30
2019-04-10T11:41:53.104Z,15.72
2019-04-10T11:44:21.672Z,13.43
2019-04-10T11:46:52.584Z,14.18
2019-04-10T11:51:55.947Z,14.00
2019-04-10T11:54:26.426Z,13.03
2019-04-10T11:56:58.348Z,12.40
2019-04-10T12:03:00.870Z,13.68
2019-04-10T12:05:31.681Z,14.78
2019-04-10T12:08:28.417Z,15.43
2019-04-10T12:12:59.825Z,15.35
2019-04-10T12:15:28.219Z,15.35
2019-04-10T12:17:56.453Z,14.68
2019-04-10T12:20:24.983Z,14.75
2019-04-10T12:22:53.250Z,24.90
2019-04-10T12:25:21.550Z,15.90
2019-04-10T12:27:51.573Z,14.70
2019-04-10T12:30:20.387Z,14.10
2019-04-10T12:32:49.279Z,15.53
2019-04-10T12:35:17.477Z,16.10
2019-04-10T12:37:46.006Z,14.23
2019-04-10T12:40:14.381Z,33.63
2019-04-10T12:42:42.545Z,18.95
2019-04-10T12:45:11.428Z,15.38
2019-04-10T12:47:39.823Z,19.10
2019-04-10T12:50:08.234Z,12.30
2019-04-10T12:52:36.385Z,13.60
2019-04-10T12:55:06.043Z,13.43
2019-04-10T12:57:34.901Z,14.13
2019-04-10T13:00:05.387Z,13.95
2019-04-10T13:02:40.886Z,15.08
2019-04-10T13:05:11.242Z,12.53
2019-04-10T13:07:39.992Z,14.38
2019-04-10T13:10:08.705Z,14.28
2019-04-10T13:12:37.659Z,12.88
2019-04-10T13:15:09.091Z,14.25
2019-04-10T13:17:37.256Z,12.68
2019-04-10T13:20:07.282Z,10.93
2019-04-10T13:22:35.976Z,12.63
2019-04-10T13:25:06.007Z,13.68
2019-04-10T13:27:34.763Z,13.10
2019-04-10T13:30:04.898Z,13.15
2019-04-10T13:32:40.517Z,12.47
2019-04-10T13:35:08.871Z,13.38
2019-04-10T13:37:37.875Z,11.90
2019-04-10T13:40:07.765Z,10.95
2019-04-10T13:42:37.032Z,11.65
2019-04-10T13:45:06.980Z,13.48
2019-04-10T13:47:35.208Z,10.93
2019-04-10T13:50:04.853Z,12.40
2019-04-10T13:52:34.211Z,10.98
2019-04-10T13:55:03.254Z,11.75
2019-04-10T13:57:32.634Z,11.63
2019-04-10T14:00:01.729Z,12.73
2019-04-10T14:02:34.087Z,17.27
2019-04-10T14:05:03.208Z,25.97
2019-04-10T14:07:31.726Z,14.43
2019-04-10T14:10:00.808Z,12.30
2019-04-10T14:12:29.162Z,12.33
2019-04-10T14:14:57.385Z,12.65
2019-04-10T14:17:25.809Z,9.95
2019-04-10T14:19:54.137Z,10.38
2019-04-10T14:22:23.842Z,10.66
2019-04-10T14:24:52.216Z,10.90
2019-04-10T14:27:22.873Z,9.93
2019-04-10T14:29:51.145Z,10.82
2019-04-10T14:32:29.942Z,11.57
2019-04-10T14:34:58.834Z,10.68
2019-04-10T14:42:35.346Z,8.88
2019-04-10T14:45:05.535Z,12.07
2019-04-10T14:47:33.933Z,10.70
2019-04-10T14:50:02.109Z,11.33
2019-04-10T14:52:30.304Z,13.50
2019-04-10T14:54:58.430Z,12.55
2019-04-10T14:57:26.792Z,12.43
2019-04-10T14:59:55.962Z,10.57
2019-04-10T15:04:59.534Z,10.30
2019-04-10T15:20:33.461Z,9.98
2019-04-10T15:23:02.885Z,9.45
2019-04-10T15:25:31.197Z,10.05
2019-04-10T15:28:00.150Z,9.43
2019-04-10T15:30:36.929Z,10.30
2019-04-10T15:33:05.141Z,9.60
2019-04-10T15:35:42.199Z,8.90
2019-04-10T15:38:11.601Z,8.97
2019-04-10T15:40:40.025Z,10.73
2019-04-10T15:43:10.761Z,9.10
2019-04-10T15:45:39.986Z,10.28
2019-04-10T15:48:08.351Z,9.50
2019-04-10T15:50:36.602Z,9.20
2019-04-10T15:53:04.761Z,9.93
2019-04-10T15:55:33.232Z,8.75
2019-04-10T15:58:11.417Z,9.27
2019-04-10T16:00:39.756Z,10.03
2019-04-10T16:03:09.071Z,10.00
2019-04-10T16:05:37.809Z,9.90
2019-04-10T16:08:06.102Z,11.50
2019-04-10T16:10:53.386Z,9.60
2019-04-10T16:13:41.691Z,9.67
2019-04-10T16:16:26.220Z,8.50
2019-04-10T16:18:56.989Z,9.07
2019-04-10T16:21:25.485Z,9.93
2019-04-10T16:23:58.419Z,8.90
2019-04-10T16:26:27.229Z,9.47
2019-04-10T16:28:55.773Z,9.78
2019-04-10T16:31:23.910Z,9.20
2019-04-10T16:33:52.495Z,9.00
2019-04-10T16:36:21.379Z,8.88
2019-04-10T16:38:49.701Z,9.77
2019-04-10T16:41:17.903Z,10.20
2019-04-10T16:43:46.703Z,9.47
2019-04-10T16:48:44.269Z,9.50
2019-04-10T16:51:26.030Z,9.13
2019-04-10T16:56:23.371Z,9.70
2019-04-10T16:58:52.150Z,9.60
2019-04-10T17:01:20.582Z,9.30
2019-04-10T17:03:49.762Z,8.30
2019-04-10T17:06:18.103Z,8.70
2019-04-10T17:08:46.289Z,8.58
2019-04-10T17:11:14.795Z,9.27
2019-04-10T17:13:43.004Z,10.60
2019-04-10T17:16:11.152Z,8.90
2019-04-10T17:18:39.636Z,9.30
2019-04-10T17:21:08.717Z,8.10
2019-04-10T17:23:37.389Z,8.20
2019-04-10T17:26:06.573Z,8.87
2019-04-10T17:28:34.847Z,8.77
2019-04-10T17:33:38.377Z,8.00
2019-04-10T17:36:07.706Z,10.05
2019-04-10T17:38:38.518Z,8.70
2019-04-10T17:41:07.273Z,9.08
2019-04-10T17:43:35.486Z,8.97
2019-04-10T17:46:04.489Z,9.37
2019-04-10T17:48:34.622Z,9.47
2019-04-10T17:51:05.861Z,8.73
2019-04-10T17:53:35.623Z,9.20
2019-04-10T17:56:04.300Z,10.27
2019-04-10T17:58:33.746Z,8.97
2019-04-10T18:01:03.948Z,8.60
2019-04-10T18:03:43.995Z,8.70
2019-04-10T18:06:03.317Z,8.60
2019-04-10T18:08:32.701Z,8.88
2019-04-10T18:11:01.063Z,8.60
2019-04-10T18:13:29.338Z,8.93
2019-04-10T18:15:57.487Z,8.33
2019-04-10T18:18:25.646Z,8.78
2019-04-10T18:20:53.931Z,7.80
2019-04-10T18:23:23.046Z,8.63
2019-04-10T18:25:51.907Z,23.33
2019-04-10T18:28:21.266Z,10.13
2019-04-10T18:30:49.587Z,7.35
2019-04-10T18:33:18.279Z,8.67
2019-04-10T18:35:47.414Z,7.93
2019-04-10T18:38:15.806Z,8.27
2019-04-10T18:40:53.088Z,7.87
2019-04-10T18:43:13.965Z,7.97
2019-04-10T18:45:53.946Z,8.60
2019-04-10T18:48:21.330Z,9.10
2019-04-10T18:50:49.669Z,7.90
2019-04-10T18:53:19.193Z,8.80
2019-04-10T18:55:48.846Z,7.60
2019-04-10T18:58:19.264Z,8.25
2019-04-10T19:01:05.551Z,7.57
2019-04-10T19:03:48.901Z,8.50
2019-04-10T19:06:16.744Z,7.97
2019-04-10T19:08:46.134Z,8.37
2019-04-10T19:11:21.158Z,8.20
2019-04-10T19:13:44.297Z,7.63
2019-04-10T19:16:13.013Z,9.93
2019-04-10T19:18:41.265Z,8.50
2019-04-10T19:21:17.921Z,11.07
2019-04-10T19:23:43.393Z,13.77
2019-04-10T19:26:13.852Z,8.73
2019-04-10T19:28:43.410Z,7.47
2019-04-10T19:31:19.627Z,7.30
2019-04-10T19:33:46.981Z,7.20
2019-04-10T19:36:15.315Z,7.00
2019-04-10T19:38:43.913Z,6.45
2019-04-10T19:41:22.202Z,8.17
2019-04-10T19:43:42.254Z,7.47
2019-04-10T19:46:10.741Z,8.47
2019-04-10T19:48:39.467Z,7.10
2019-04-10T19:51:07.992Z,8.47
2019-04-10T19:53:37.345Z,7.25
2019-04-10T19:56:06.546Z,5.45
2019-04-10T19:58:35.121Z,6.03
2019-04-10T20:01:05.204Z,6.17
2019-04-10T20:03:33.439Z,6.07
2019-04-10T20:06:01.647Z,6.20
2019-04-10T20:08:29.837Z,7.67
2019-04-10T20:10:58.252Z,7.57
2019-04-10T20:13:26.953Z,7.00
2019-04-10T20:15:55.255Z,6.40
2019-04-10T20:18:41.171Z,6.90
2019-04-10T20:21:10.004Z,6.40
2019-04-10T20:23:38.339Z,7.53
2019-04-10T20:26:07.897Z,12.87
2019-04-10T20:28:36.613Z,12.98
2019-04-10T20:31:26.087Z,7.37
2019-04-10T20:34:07.335Z,6.47
2019-04-10T20:39:21.138Z,6.40
2019-04-10T20:41:53.755Z,6.55
2019-04-10T20:44:19.303Z,6.13
2019-04-10T20:46:48.701Z,6.22
2019-04-10T20:49:18.299Z,5.23
2019-04-10T20:51:47.713Z,7.07
2019-04-10T20:54:25.536Z,6.23
2019-04-10T20:57:04.950Z,6.90
2019-04-10T21:02:31.801Z,6.47
2019-04-10T21:05:05.781Z,6.67
2019-04-10T21:07:29.891Z,6.70
2019-04-10T21:09:58.755Z,6.70
2019-04-10T21:12:28.537Z,6.57
2019-04-10T21:14:56.758Z,6.67
2019-04-10T21:17:24.926Z,7.10
2019-04-10T21:19:53.743Z,7.73
2019-04-10T21:22:22.412Z,6.47
2019-04-10T21:24:50.712Z,6.47
2019-04-10T21:27:20.762Z,7.87
2019-04-10T21:29:53.148Z,13.70
2019-04-10T21:32:43.021Z,7.20
2019-04-10T21:35:12.889Z,6.53
2019-04-10T21:37:41.008Z,6.92
2019-04-10T21:40:10.161Z,6.23
2019-04-10T21:42:39.185Z,7.53
2019-04-10T21:45:07.566Z,6.80
2019-04-10T21:47:37.554Z,6.67
2019-04-10T21:50:06.696Z,6.60
2019-04-10T21:52:34.842Z,6.57
2019-04-10T21:55:06.522Z,6.47
2019-04-10T21:57:34.831Z,6.10
2019-04-10T22:00:04.662Z,6.03
2019-04-10T22:02:32.903Z,6.23
2019-04-10T22:05:01.245Z,8.13
2019-04-10T22:07:32.191Z,6.63
2019-04-10T22:10:05.597Z,6.17
2019-04-10T22:12:39.418Z,6.63
2019-04-10T22:15:07.080Z,9.00
2019-04-10T22:17:36.158Z,7.60
2019-04-10T22:20:05.509Z,14.53
2019-04-10T22:22:33.719Z,7.67
2019-04-10T22:25:01.928Z,7.07
2019-04-10T22:27:30.288Z,6.75
2019-04-10T22:30:00.488Z,6.63
2019-04-10T22:32:31.042Z,6.90
2019-04-10T22:34:59.041Z,12.90
2019-04-10T22:37:27.783Z,8.00
2019-04-10T22:39:56.630Z,7.03
2019-04-10T22:42:36.641Z,6.80
2019-04-10T22:44:55.913Z,6.70
2019-04-10T22:47:25.330Z,7.47
2019-04-10T22:49:53.645Z,7.13
2019-04-10T22:52:21.933Z,6.70
2019-04-10T22:54:50.905Z,6.25
2019-04-10T22:57:19.255Z,6.67
2019-04-10T22:59:47.412Z,6.40
2019-04-10T23:02:16.467Z,6.37
2019-04-10T23:04:44.944Z,7.15
2019-04-10T23:07:13.510Z,6.37
2019-04-10T23:09:41.770Z,6.43
2019-04-10T23:12:10.007Z,6.77
2019-04-10T23:14:38.645Z,6.60
2019-04-10T23:19:41.237Z,6.20
2019-04-10T23:22:10.477Z,6.67
2019-04-10T23:24:40.030Z,6.00
2019-04-10T23:27:09.355Z,6.50
2019-04-10T23:29:38.198Z,7.70
2019-04-10T23:32:06.475Z,6.27
2019-04-10T23:34:34.678Z,6.13
2019-04-10T23:37:02.786Z,6.83
2019-04-10T23:39:30.987Z,6.75
2019-04-10T23:41:59.094Z,6.00
2019-04-10T23:44:27.203Z,6.87
2019-04-10T23:46:55.764Z,5.70
2019-04-10T23:49:25.916Z,5.83
2019-04-10T23:51:53.836Z,5.90
2019-04-10T23:54:22.023Z,6.20
2019-04-10T23:56:50.736Z,6.43
2019-04-10T23:59:22.532Z,6.10
